sensor_id;sensor_type;location;lat;lon;timestamp;pressure;altitude;pressure_sealevel;temperature;humidity
34712;BME280;20941;42.408;25.634;2023-01-19T00:01:13;98812.72;;;13.39;100.00
34712;BME280;20941;42.408;25.634;2023-01-19T00:03:39;98804.44;;;13.33;100.00
34712;BME280;20941;42.408;25.634;2023-01-19T00:06:08;98812.72;;;13.39;100.00
34712;BME280;20941;42.408;25.634;2023-01-19T00:08:34;98818.38;;;13.39;100.00
34712;BME280;20941;42.408;25.634;2023-01-19T00:11:00;98819.88;;;13.36;100.00
34712;BME280;20941;42.408;25.634;2023-01-19T00:13:26;98817.28;;;13.31;100.00
34712;BME280;20941;42.408;25.634;2023-01-19T00:15:52;98817.28;;;13.31;100.00
34712;BME280;20941;42.408;25.634;2023-01-19T00:18:18;98823.69;;;13.19;100.00
34712;BME280;20941;42.408;25.634;2023-01-19T00:20:45;98830.44;;;13.06;100.00
34712;BME280;20941;42.408;25.634;2023-01-19T00:23:11;98834.66;;;12.99;100.00
34712;BME280;20941;42.408;25.634;2023-01-19T00:25:37;98837.97;;;13.02;100.00
34712;BME280;20941;42.408;25.634;2023-01-19T00:28:14;98794.19;;;12.74;100.00
34712;BME280;20941;42.408;25.634;2023-01-19T00:30:40;98841.00;;;12.96;100.00
34712;BME280;20941;42.408;25.634;2023-01-19T00:33:07;98823.22;;;12.75;100.00
34712;BME280;20941;42.408;25.634;2023-01-19T00:35:34;98823.94;;;12.72;100.00
34712;BME280;20941;42.408;25.634;2023-01-19T00:38:00;98849.41;;;12.84;100.00
34712;BME280;20941;42.408;25.634;2023-01-19T00:40:25;98850.91;;;12.81;100.00
34712;BME280;20941;42.408;25.634;2023-01-19T00:42:51;98845.59;;;12.80;100.00
34712;BME280;20941;42.408;25.634;2023-01-19T00:45:19;98836.16;;;12.76;100.00
34712;BME280;20941;42.408;25.634;2023-01-19T00:47:46;98839.00;;;12.76;100.00
34712;BME280;20941;42.408;25.634;2023-01-19T00:50:14;98836.16;;;12.76;100.00
34712;BME280;20941;42.408;25.634;2023-01-19T00:52:42;98847.53;;;12.88;100.00
34712;BME280;20941;42.408;25.634;2023-01-19T00:55:10;98820.19;;;12.80;100.00
34712;BME280;20941;42.408;25.634;2023-01-19T00:57:37;98836.03;;;12.93;100.00
34712;BME280;20941;42.408;25.634;2023-01-19T01:00:04;98792.47;;;12.61;100.00
34712;BME280;20941;42.408;25.634;2023-01-19T01:02:30;98845.53;;;12.89;100.00
34712;BME280;20941;42.408;25.634;2023-01-19T01:04:56;98824.47;;;12.86;100.00
34712;BME280;20941;42.408;25.634;2023-01-19T01:07:22;98830.81;;;12.83;100.00
34712;BME280;20941;42.408;25.634;2023-01-19T01:09:49;98851.06;;;12.85;100.00
34712;BME280;20941;42.408;25.634;2023-01-19T01:12:14;98841.59;;;12.81;100.00
34712;BME280;20941;42.408;25.634;2023-01-19T01:14:40;98848.91;;;12.82;100.00
34712;BME280;20941;42.408;25.634;2023-01-19T01:17:06;98808.63;;;12.51;100.00
34712;BME280;20941;42.408;25.634;2023-01-19T01:19:36;98807.88;;;12.63;100.00
34712;BME280;20941;42.408;25.634;2023-01-19T01:22:03;98827.00;;;12.79;100.00
34712;BME280;20941;42.408;25.634;2023-01-19T01:24:29;98823.94;;;12.72;100.00
34712;BME280;20941;42.408;25.634;2023-01-19T01:26:54;98833.28;;;12.84;100.00
34712;BME280;20941;42.408;25.634;2023-01-19T01:29:20;98833.97;;;12.81;100.00
34712;BME280;20941;42.408;25.634;2023-01-19T01:31:45;98819.53;;;12.83;100.00
34712;BME280;20941;42.408;25.634;2023-01-19T01:34:11;98802.75;;;12.65;100.00
34712;BME280;20941;42.408;25.634;2023-01-19T01:36:37;98790.41;;;12.49;100.00
34712;BME280;20941;42.408;25.634;2023-01-19T01:39:03;98805.06;;;12.63;100.00
34712;BME280;20941;42.408;25.634;2023-01-19T01:41:29;98840.00;;;12.71;100.00
34712;BME280;20941;42.408;25.634;2023-01-19T01:43:56;98839.66;;;12.73;100.00
34712;BME280;20941;42.408;25.634;2023-01-19T01:46:28;98821.22;;;12.54;100.00
34712;BME280;20941;42.408;25.634;2023-01-19T01:49:20;98834.22;;;12.67;100.00
34712;BME280;20941;42.408;25.634;2023-01-19T01:51:49;98838.91;;;12.63;100.00
34712;BME280;20941;42.408;25.634;2023-01-19T01:54:20;98835.41;;;12.66;100.00
34712;BME280;20941;42.408;25.634;2023-01-19T01:56:49;98811.66;;;12.67;100.00
34712;BME280;20941;42.408;25.634;2023-01-19T01:59:20;98838.22;;;12.66;100.00
34712;BME280;20941;42.408;25.634;2023-01-19T02:01:55;98820.34;;;12.62;100.00
34712;BME280;20941;42.408;25.634;2023-01-19T02:04:45;98817.03;;;12.60;100.00
34712;BME280;20941;42.408;25.634;2023-01-19T02:07:16;98813.75;;;12.58;100.00
34712;BME280;20941;42.408;25.634;2023-01-19T02:10:03;98829.09;;;12.70;100.00
34712;BME280;20941;42.408;25.634;2023-01-19T02:12:48;98827.91;;;12.71;100.00
34712;BME280;20941;42.408;25.634;2023-01-19T02:15:32;98845.13;;;12.78;100.00
34712;BME280;20941;42.408;25.634;2023-01-19T02:17:57;98834.13;;;12.85;100.00
34712;BME280;20941;42.408;25.634;2023-01-19T02:20:26;98833.63;;;12.83;100.00
34712;BME280;20941;42.408;25.634;2023-01-19T02:22:54;98824.88;;;12.76;100.00
34712;BME280;20941;42.408;25.634;2023-01-19T02:25:24;98829.16;;;12.82;100.00
34712;BME280;20941;42.408;25.634;2023-01-19T02:27:50;98824.81;;;12.63;100.00
34712;BME280;20941;42.408;25.634;2023-01-19T02:30:16;98822.94;;;12.67;100.00
34712;BME280;20941;42.408;25.634;2023-01-19T02:32:42;98831.31;;;12.55;100.00
34712;BME280;20941;42.408;25.634;2023-01-19T02:35:09;98843.84;;;12.66;100.00
34712;BME280;20941;42.408;25.634;2023-01-19T02:37:38;98845.81;;;12.75;100.00
34712;BME280;20941;42.408;25.634;2023-01-19T02:40:12;98813.03;;;12.61;100.00
34712;BME280;20941;42.408;25.634;2023-01-19T02:42:42;98811.66;;;12.67;100.00
34712;BME280;20941;42.408;25.634;2023-01-19T02:45:11;98817.03;;;12.60;100.00
34712;BME280;20941;42.408;25.634;2023-01-19T02:47:47;98829.28;;;12.64;100.00
34712;BME280;20941;42.408;25.634;2023-01-19T02:53:12;98824.81;;;12.63;100.00
34712;BME280;20941;42.408;25.634;2023-01-19T02:55:44;98831.63;;;12.62;100.00
34712;BME280;20941;42.408;25.634;2023-01-19T03:03:58;98840.66;;;12.77;100.00
34712;BME280;20941;42.408;25.634;2023-01-19T03:09:11;98837.81;;;12.77;100.00
34712;BME280;20941;42.408;25.634;2023-01-19T03:11:45;98838.03;;;12.72;100.00
34712;BME280;20941;42.408;25.634;2023-01-19T03:14:15;98840.16;;;12.75;100.00
34712;BME280;20941;42.408;25.634;2023-01-19T03:16:46;98841.09;;;12.79;100.00
34712;BME280;20941;42.408;25.634;2023-01-19T03:19:26;98835.00;;;12.77;100.00
34712;BME280;20941;42.408;25.634;2023-01-19T03:21:58;98820.63;;;12.70;100.00
34712;BME280;20941;42.408;25.634;2023-01-19T03:24:28;98833.56;;;12.71;100.00
34712;BME280;20941;42.408;25.634;2023-01-19T03:27:00;98828.19;;;12.78;100.00
34712;BME280;20941;42.408;25.634;2023-01-19T03:29:30;98832.84;;;12.74;100.00
34712;BME280;20941;42.408;25.634;2023-01-19T03:32:01;98832.84;;;12.74;100.00
34712;BME280;20941;42.408;25.634;2023-01-19T03:34:28;98831.91;;;12.70;100.00
34712;BME280;20941;42.408;25.634;2023-01-19T03:36:57;98822.28;;;12.71;100.00
34712;BME280;20941;42.408;25.634;2023-01-19T03:39:25;98828.38;;;12.73;100.00
34712;BME280;20941;42.408;25.634;2023-01-19T03:41:57;98811.31;;;12.69;100.00
34712;BME280;20941;42.408;25.634;2023-01-19T03:44:25;98823.22;;;12.75;100.00
34712;BME280;20941;42.408;25.634;2023-01-19T03:46:52;98832.47;;;12.84;100.00
34712;BME280;20941;42.408;25.634;2023-01-19T03:49:19;98834.78;;;12.82;100.00
34712;BME280;20941;42.408;25.634;2023-01-19T03:51:45;98823.50;;;12.82;100.00
34712;BME280;20941;42.408;25.634;2023-01-19T03:54:11;98832.47;;;12.84;100.00
34712;BME280;20941;42.408;25.634;2023-01-19T03:56:36;98833.41;;;12.88;100.00
34712;BME280;20941;42.408;25.634;2023-01-19T03:59:02;98806.50;;;12.70;100.00
34712;BME280;20941;42.408;25.634;2023-01-19T04:01:30;98811.81;;;12.71;100.00
34712;BME280;20941;42.408;25.634;2023-01-19T04:03:56;98843.47;;;12.77;100.00
34712;BME280;20941;42.408;25.634;2023-01-19T04:06:22;98846.09;;;12.82;100.00
34712;BME280;20941;42.408;25.634;2023-01-19T04:08:49;98851.72;;;12.82;100.00
34712;BME280;20941;42.408;25.634;2023-01-19T04:11:15;98830.44;;;12.63;100.00
34712;BME280;20941;42.408;25.634;2023-01-19T04:13:41;98854.53;;;12.82;100.00
34712;BME280;20941;42.408;25.634;2023-01-19T04:16:08;98850.28;;;12.76;100.00
34712;BME280;20941;42.408;25.634;2023-01-19T04:18:34;98852.41;;;12.79;100.00
34712;BME280;20941;42.408;25.634;2023-01-19T04:21:05;98846.91;;;12.82;100.00
34712;BME280;20941;42.408;25.634;2023-01-19T04:23:31;98853.38;;;12.83;100.00
34712;BME280;20941;42.408;25.634;2023-01-19T04:25:59;98859.69;;;12.80;100.00
34712;BME280;20941;42.408;25.634;2023-01-19T04:28:25;98867.50;;;12.83;100.00
34712;BME280;20941;42.408;25.634;2023-01-19T04:30:51;98852.41;;;12.79;100.00
34712;BME280;20941;42.408;25.634;2023-01-19T04:33:18;98871.28;;;12.87;100.00
34712;BME280;20941;42.408;25.634;2023-01-19T04:35:45;98860.69;;;12.84;100.00
34712;BME280;20941;42.408;25.634;2023-01-19T04:38:10;98868.66;;;12.82;100.00
34712;BME280;20941;42.408;25.634;2023-01-19T04:40:36;98871.53;;;12.73;100.00
34712;BME280;20941;42.408;25.634;2023-01-19T04:43:01;98883.94;;;12.81;100.00
34712;BME280;20941;42.408;25.634;2023-01-19T04:45:27;98847.72;;;12.62;100.00
34712;BME280;20941;42.408;25.634;2023-01-19T04:47:53;98881.09;;;12.81;100.00
34712;BME280;20941;42.408;25.634;2023-01-19T04:50:19;98889.22;;;12.82;100.00
34712;BME280;20941;42.408;25.634;2023-01-19T04:52:47;98874.28;;;12.82;100.00
34712;BME280;20941;42.408;25.634;2023-01-19T04:55:13;98870.03;;;12.76;100.00
34712;BME280;20941;42.408;25.634;2023-01-19T04:57:39;98879.44;;;12.80;100.00
34712;BME280;20941;42.408;25.634;2023-01-19T05:00:06;98883.06;;;12.89;100.00
34712;BME280;20941;42.408;25.634;2023-01-19T05:02:32;98868.88;;;12.77;100.00
34712;BME280;20941;42.408;25.634;2023-01-19T05:04:58;98882.03;;;12.94;100.00
34712;BME280;20941;42.408;25.634;2023-01-19T05:07:24;98887.75;;;12.85;100.00
34712;BME280;20941;42.408;25.634;2023-01-19T05:09:49;98885.03;;;12.89;100.00
34712;BME280;20941;42.408;25.634;2023-01-19T05:12:15;98897.91;;;12.98;100.00
34712;BME280;20941;42.408;25.634;2023-01-19T05:14:41;98888.19;;;12.87;100.00
34712;BME280;20941;42.408;25.634;2023-01-19T05:17:07;98906.59;;;12.93;100.00
34712;BME280;20941;42.408;25.634;2023-01-19T05:19:33;98908.44;;;12.89;100.00
34712;BME280;20941;42.408;25.634;2023-01-19T05:22:01;98916.41;;;12.87;100.00
34712;BME280;20941;42.408;25.634;2023-01-19T05:24:28;98906.44;;;12.90;100.00
34712;BME280;20941;42.408;25.634;2023-01-19T05:26:53;98915.03;;;12.93;100.00
34712;BME280;20941;42.408;25.634;2023-01-19T05:29:19;98897.81;;;12.86;100.00
34712;BME280;20941;42.408;25.634;2023-01-19T05:31:45;98920.97;;;13.00;100.00
34712;BME280;20941;42.408;25.634;2023-01-19T05:34:11;98914.44;;;13.09;100.00
34712;BME280;20941;42.408;25.634;2023-01-19T05:36:37;98907.50;;;13.06;99.32
34712;BME280;20941;42.408;25.634;2023-01-19T05:39:03;98896.34;;;13.10;98.28
34712;BME280;20941;42.408;25.634;2023-01-19T05:41:28;98904.59;;;13.15;97.51
34712;BME280;20941;42.408;25.634;2023-01-19T05:43:54;98918.13;;;13.30;97.01
34712;BME280;20941;42.408;25.634;2023-01-19T05:46:20;98915.28;;;13.30;96.47
34712;BME280;20941;42.408;25.634;2023-01-19T05:48:45;98939.03;;;13.29;97.07
34712;BME280;20941;42.408;25.634;2023-01-19T05:51:11;98926.09;;;13.28;97.08
34712;BME280;20941;42.408;25.634;2023-01-19T05:53:36;98915.91;;;13.15;96.75
34712;BME280;20941;42.408;25.634;2023-01-19T05:56:04;98937.91;;;13.22;97.62
34712;BME280;20941;42.408;25.634;2023-01-19T05:58:33;98936.28;;;13.21;97.43
34712;BME280;20941;42.408;25.634;2023-01-19T06:01:07;98936.81;;;13.14;97.71
34712;BME280;20941;42.408;25.634;2023-01-19T06:03:34;98951.38;;;13.25;97.31
34712;BME280;20941;42.408;25.634;2023-01-19T06:06:01;98945.28;;;13.14;97.80
34712;BME280;20941;42.408;25.634;2023-01-19T06:08:27;98972.31;;;13.24;97.54
34712;BME280;20941;42.408;25.634;2023-01-19T06:10:53;98984.91;;;13.26;97.10
34712;BME280;20941;42.408;25.634;2023-01-19T06:13:19;98952.09;;;13.13;97.40
34712;BME280;20941;42.408;25.634;2023-01-19T06:15:45;98983.25;;;13.25;97.60
34712;BME280;20941;42.408;25.634;2023-01-19T06:18:11;98958.09;;;13.11;97.07
34712;BME280;20941;42.408;25.634;2023-01-19T06:20:39;98977.88;;;13.32;96.54
34712;BME280;20941;42.408;25.634;2023-01-19T06:23:04;98993.47;;;13.39;96.13
34712;BME280;20941;42.408;25.634;2023-01-19T06:25:30;98964.66;;;13.24;95.53
34712;BME280;20941;42.408;25.634;2023-01-19T06:27:56;98981.66;;;13.45;95.04
34712;BME280;20941;42.408;25.634;2023-01-19T06:30:21;98971.88;;;13.43;94.43
34712;BME280;20941;42.408;25.634;2023-01-19T06:32:47;98977.78;;;13.50;94.20
34712;BME280;20941;42.408;25.634;2023-01-19T06:35:13;98996.66;;;13.58;94.15
34712;BME280;20941;42.408;25.634;2023-01-19T06:37:39;98994.72;;;13.71;93.48
34712;BME280;20941;42.408;25.634;2023-01-19T06:40:05;98974.63;;;13.52;93.85
34712;BME280;20941;42.408;25.634;2023-01-19T06:42:31;99006.25;;;13.66;94.46
34712;BME280;20941;42.408;25.634;2023-01-19T06:44:57;98986.06;;;13.55;94.49
34712;BME280;20941;42.408;25.634;2023-01-19T06:47:22;99008.66;;;13.76;94.25
34712;BME280;20941;42.408;25.634;2023-01-19T06:49:48;98993.88;;;13.71;94.08
34712;BME280;20941;42.408;25.634;2023-01-19T06:52:14;99005.94;;;13.80;93.78
34712;BME280;20941;42.408;25.634;2023-01-19T06:54:43;98999.41;;;13.88;93.25
34712;BME280;20941;42.408;25.634;2023-01-19T06:57:09;98999.88;;;13.90;92.87
34712;BME280;20941;42.408;25.634;2023-01-19T06:59:38;98992.81;;;13.96;91.79
34712;BME280;20941;42.408;25.634;2023-01-19T07:02:04;99003.84;;;14.10;91.24
34712;BME280;20941;42.408;25.634;2023-01-19T07:04:30;99007.25;;;14.16;90.79
34712;BME280;20941;42.408;25.634;2023-01-19T07:06:56;98994.78;;;14.17;89.90
34712;BME280;20941;42.408;25.634;2023-01-19T07:09:21;98984.56;;;14.25;89.16
34712;BME280;20941;42.408;25.634;2023-01-19T07:11:49;98979.13;;;14.32;88.30
34712;BME280;20941;42.408;25.634;2023-01-19T07:14:14;99003.13;;;14.47;87.46
34712;BME280;20941;42.408;25.634;2023-01-19T07:16:40;98992.50;;;14.44;87.47
34712;BME280;20941;42.408;25.634;2023-01-19T07:19:06;98991.69;;;14.56;86.27
34712;BME280;20941;42.408;25.634;2023-01-19T07:21:35;98971.28;;;14.50;86.29
34712;BME280;20941;42.408;25.634;2023-01-19T07:24:00;99003.88;;;14.69;86.12
34712;BME280;20941;42.408;25.634;2023-01-19T07:26:26;98970.88;;;14.73;84.72
34712;BME280;20941;42.408;25.634;2023-01-19T07:28:52;98991.38;;;14.95;83.79
34712;BME280;20941;42.408;25.634;2023-01-19T07:31:18;98969.94;;;14.94;82.43
34712;BME280;20941;42.408;25.634;2023-01-19T07:33:43;98964.72;;;14.96;81.86
34712;BME280;20941;42.408;25.634;2023-01-19T07:36:09;98984.31;;;15.13;82.33
34712;BME280;20941;42.408;25.634;2023-01-19T07:38:35;98959.03;;;15.08;81.88
34712;BME280;20941;42.408;25.634;2023-01-19T07:41:05;98986.41;;;15.29;81.61
34712;BME280;20941;42.408;25.634;2023-01-19T07:43:32;98962.81;;;15.24;81.56
34712;BME280;20941;42.408;25.634;2023-01-19T07:45:59;98991.69;;;15.43;81.45
34712;BME280;20941;42.408;25.634;2023-01-19T07:48:26;98995.09;;;15.48;80.64
34712;BME280;20941;42.408;25.634;2023-01-19T07:50:52;99001.09;;;15.59;80.21
34712;BME280;20941;42.408;25.634;2023-01-19T07:53:18;99001.69;;;15.65;79.76
34712;BME280;20941;42.408;25.634;2023-01-19T07:55:43;98979.22;;;15.60;80.01
34712;BME280;20941;42.408;25.634;2023-01-19T07:58:09;98974.00;;;15.74;78.71
34712;BME280;20941;42.408;25.634;2023-01-19T08:00:36;98997.25;;;15.92;78.97
34712;BME280;20941;42.408;25.634;2023-01-19T08:03:03;99003.22;;;16.03;77.79
34712;BME280;20941;42.408;25.634;2023-01-19T08:05:30;98991.47;;;15.88;77.30
34712;BME280;20941;42.408;25.634;2023-01-19T08:07:57;98980.84;;;15.85;78.03
34712;BME280;20941;42.408;25.634;2023-01-19T08:10:24;98985.78;;;15.88;77.78
34712;BME280;20941;42.408;25.634;2023-01-19T08:12:55;99014.50;;;16.15;77.88
34712;BME280;20941;42.408;25.634;2023-01-19T08:15:21;98997.91;;;16.01;77.11
34712;BME280;20941;42.408;25.634;2023-01-19T08:18:02;99008.56;;;16.20;76.49
34712;BME280;20941;42.408;25.634;2023-01-19T08:20:33;99029.81;;;16.27;76.44
34712;BME280;20941;42.408;25.634;2023-01-19T08:22:59;99021.88;;;16.32;75.76
34712;BME280;20941;42.408;25.634;2023-01-19T08:25:39;99013.72;;;16.31;75.78
34712;BME280;20941;42.408;25.634;2023-01-19T08:28:10;99028.84;;;16.51;75.10
34712;BME280;20941;42.408;25.634;2023-01-19T08:30:36;99029.88;;;16.59;74.89
34712;BME280;20941;42.408;25.634;2023-01-19T08:33:03;99029.34;;;16.69;73.26
34712;BME280;20941;42.408;25.634;2023-01-19T08:35:30;99029.06;;;16.74;72.89
34712;BME280;20941;42.408;25.634;2023-01-19T08:37:56;99025.94;;;16.79;72.81
34712;BME280;20941;42.408;25.634;2023-01-19T08:40:28;99024.47;;;16.69;73.01
34712;BME280;20941;42.408;25.634;2023-01-19T08:42:58;99040.34;;;16.87;72.82
34712;BME280;20941;42.408;25.634;2023-01-19T08:45:34;99012.50;;;16.76;72.63
34712;BME280;20941;42.408;25.634;2023-01-19T08:48:00;99030.84;;;16.95;73.55
34712;BME280;20941;42.408;25.634;2023-01-19T08:50:30;99040.38;;;17.03;74.09
34712;BME280;20941;42.408;25.634;2023-01-19T08:53:00;98977.78;;;16.67;72.50
34712;BME280;20941;42.408;25.634;2023-01-19T08:55:27;99035.06;;;17.01;71.94
34712;BME280;20941;42.408;25.634;2023-01-19T08:57:55;99011.13;;;16.86;71.70
34712;BME280;20941;42.408;25.634;2023-01-19T09:00:29;99022.03;;;17.00;71.99
34712;BME280;20941;42.408;25.634;2023-01-19T09:02:56;99038.34;;;17.03;71.97
34712;BME280;20941;42.408;25.634;2023-01-19T09:05:22;99013.53;;;17.00;72.73
34712;BME280;20941;42.408;25.634;2023-01-19T09:07:47;99015.63;;;17.03;71.47
34712;BME280;20941;42.408;25.634;2023-01-19T09:10:14;99006.66;;;17.01;71.72
34712;BME280;20941;42.408;25.634;2023-01-19T09:12:40;98992.75;;;16.96;71.18
34712;BME280;20941;42.408;25.634;2023-01-19T09:15:08;99013.59;;;17.20;70.66
34712;BME280;20941;42.408;25.634;2023-01-19T09:17:35;99017.50;;;17.31;70.68
34712;BME280;20941;42.408;25.634;2023-01-19T09:20:01;98990.41;;;17.17;70.56
34712;BME280;20941;42.408;25.634;2023-01-19T09:22:27;99015.72;;;17.42;70.21
34712;BME280;20941;42.408;25.634;2023-01-19T09:24:52;98990.47;;;17.21;70.23
34712;BME280;20941;42.408;25.634;2023-01-19T09:27:18;98996.22;;;17.41;69.41
34712;BME280;20941;42.408;25.634;2023-01-19T09:29:44;98993.75;;;17.39;69.38
34712;BME280;20941;42.408;25.634;2023-01-19T09:32:19;98971.16;;;17.27;69.34
34712;BME280;20941;42.408;25.634;2023-01-19T09:34:45;98948.28;;;17.39;69.27
34712;BME280;20941;42.408;25.634;2023-01-19T09:37:14;98990.75;;;17.32;67.96
34712;BME280;20941;42.408;25.634;2023-01-19T09:39:40;98954.66;;;17.16;69.44
34712;BME280;20941;42.408;25.634;2023-01-19T09:42:24;98966.16;;;17.40;69.32
34712;BME280;20941;42.408;25.634;2023-01-19T09:44:52;98952.31;;;17.38;69.42
34712;BME280;20941;42.408;25.634;2023-01-19T09:47:28;98933.44;;;17.30;69.66
34712;BME280;20941;42.408;25.634;2023-01-19T09:50:03;98955.19;;;17.58;67.49
34712;BME280;20941;42.408;25.634;2023-01-19T09:52:34;98916.47;;;17.33;67.49
34712;BME280;20941;42.408;25.634;2023-01-19T09:55:01;98941.25;;;17.53;67.47
34712;BME280;20941;42.408;25.634;2023-01-19T09:57:27;98942.16;;;17.57;67.14
34712;BME280;20941;42.408;25.634;2023-01-19T09:59:54;98934.97;;;17.63;66.97
34712;BME280;20941;42.408;25.634;2023-01-19T10:02:29;98950.84;;;17.64;67.08
34712;BME280;20941;42.408;25.634;2023-01-19T10:10:11;98936.78;;;17.71;65.69
34712;BME280;20941;42.408;25.634;2023-01-19T10:15:19;98913.22;;;17.71;64.59
34712;BME280;20941;42.408;25.634;2023-01-19T10:18:19;98933.63;;;17.76;63.82
34712;BME280;20941;42.408;25.634;2023-01-19T10:20:49;98936.03;;;17.74;64.25
34712;BME280;20941;42.408;25.634;2023-01-19T10:26:25;98923.50;;;17.79;64.88
34712;BME280;20941;42.408;25.634;2023-01-19T10:28:57;98932.59;;;17.85;64.51
34712;BME280;20941;42.408;25.634;2023-01-19T10:31:26;98916.41;;;17.89;64.46
34712;BME280;20941;42.408;25.634;2023-01-19T10:33:52;98916.78;;;17.87;64.77
34712;BME280;20941;42.408;25.634;2023-01-19T10:36:28;98885.28;;;17.57;65.04
34712;BME280;20941;42.408;25.634;2023-01-19T10:38:57;98894.56;;;17.73;64.79
34712;BME280;20941;42.408;25.634;2023-01-19T10:41:50;98904.00;;;17.77;63.63
34712;BME280;20941;42.408;25.634;2023-01-19T10:44:24;98904.31;;;17.72;63.89
34712;BME280;20941;42.408;25.634;2023-01-19T10:46:50;98897.19;;;17.82;63.29
34712;BME280;20941;42.408;25.634;2023-01-19T10:49:28;98890.06;;;17.92;63.38
34712;BME280;20941;42.408;25.634;2023-01-19T10:51:56;98909.06;;;17.88;62.46
34712;BME280;20941;42.408;25.634;2023-01-19T10:54:23;98894.56;;;17.93;62.89
34712;BME280;20941;42.408;25.634;2023-01-19T10:56:53;98879.78;;;18.07;61.73
34712;BME280;20941;42.408;25.634;2023-01-19T10:59:46;98875.69;;;18.04;62.73
34712;BME280;20941;42.408;25.634;2023-01-19T11:02:25;98870.00;;;18.04;61.70
34712;BME280;20941;42.408;25.634;2023-01-19T11:04:56;98857.44;;;17.86;61.46
34712;BME280;20941;42.408;25.634;2023-01-19T11:07:33;98873.38;;;17.90;61.21
34712;BME280;20941;42.408;25.634;2023-01-19T11:10:31;98872.16;;;17.91;61.69
34712;BME280;20941;42.408;25.634;2023-01-19T11:13:00;98876.16;;;17.87;62.06
34712;BME280;20941;42.408;25.634;2023-01-19T11:15:41;98851.03;;;17.92;61.63
34712;BME280;20941;42.408;25.634;2023-01-19T11:18:36;98841.75;;;17.72;61.38
34712;BME280;20941;42.408;25.634;2023-01-19T11:21:08;98853.88;;;17.92;62.32
34712;BME280;20941;42.408;25.634;2023-01-19T11:23:36;98866.84;;;17.90;60.56
34712;BME280;20941;42.408;25.634;2023-01-19T11:26:13;98831.38;;;17.84;61.94
34712;BME280;20941;42.408;25.634;2023-01-19T11:28:47;98844.88;;;17.87;61.29
34712;BME280;20941;42.408;25.634;2023-01-19T11:33:55;98835.72;;;17.97;59.93
34712;BME280;20941;42.408;25.634;2023-01-19T11:36:33;98840.66;;;18.00;58.22
34712;BME280;20941;42.408;25.634;2023-01-19T11:39:22;98829.22;;;17.96;59.53
34712;BME280;20941;42.408;25.634;2023-01-19T11:41:51;98809.50;;;17.88;59.38
34712;BME280;20941;42.408;25.634;2023-01-19T11:44:31;98817.91;;;18.00;60.24
34712;BME280;20941;42.408;25.634;2023-01-19T11:47:05;98767.81;;;17.72;59.28
34712;BME280;20941;42.408;25.634;2023-01-19T11:49:46;98822.19;;;17.90;59.85
34712;BME280;20941;42.408;25.634;2023-01-19T11:52:24;98806.84;;;17.75;59.16
34712;BME280;20941;42.408;25.634;2023-01-19T11:55:01;98769.31;;;17.66;58.74
34712;BME280;20941;42.408;25.634;2023-01-19T11:57:28;98799.97;;;17.76;58.81
34712;BME280;20941;42.408;25.634;2023-01-19T11:59:53;98789.38;;;17.73;59.14
34712;BME280;20941;42.408;25.634;2023-01-19T12:02:45;98812.91;;;17.74;59.96
34712;BME280;20941;42.408;25.634;2023-01-19T12:05:15;98828.78;;;17.75;60.21
34712;BME280;20941;42.408;25.634;2023-01-19T12:07:44;98804.81;;;17.53;60.02
34712;BME280;20941;42.408;25.634;2023-01-19T12:10:32;98807.97;;;17.47;58.71
34712;BME280;20941;42.408;25.634;2023-01-19T12:13:02;98841.03;;;17.79;59.21
34712;BME280;20941;42.408;25.634;2023-01-19T12:15:32;98814.72;;;17.82;58.18
34712;BME280;20941;42.408;25.634;2023-01-19T12:18:00;98835.00;;;17.80;59.58
34712;BME280;20941;42.408;25.634;2023-01-19T12:20:36;98827.97;;;17.74;60.19
34712;BME280;20941;42.408;25.634;2023-01-19T12:26:07;98831.84;;;17.86;59.39
34712;BME280;20941;42.408;25.634;2023-01-19T12:28:41;98825.69;;;17.84;59.27
34712;BME280;20941;42.408;25.634;2023-01-19T12:31:14;98840.97;;;17.75;59.05
34712;BME280;20941;42.408;25.634;2023-01-19T12:33:41;98826.47;;;17.80;59.29
34712;BME280;20941;42.408;25.634;2023-01-19T12:38:56;98836.78;;;17.69;58.76
34712;BME280;20941;42.408;25.634;2023-01-19T12:41:35;98843.91;;;17.59;59.34
34712;BME280;20941;42.408;25.634;2023-01-19T12:46:42;98859.41;;;17.62;58.70
34712;BME280;20941;42.408;25.634;2023-01-19T12:49:24;98864.97;;;17.55;58.39
34712;BME280;20941;42.408;25.634;2023-01-19T13:00:36;98824.72;;;17.33;57.72
34712;BME280;20941;42.408;25.634;2023-01-19T13:18:59;98887.47;;;17.44;58.05
34712;BME280;20941;42.408;25.634;2023-01-19T13:22:04;98877.69;;;17.41;58.65
34712;BME280;20941;42.408;25.634;2023-01-19T13:24:23;98878.25;;;17.31;58.08
34712;BME280;20941;42.408;25.634;2023-01-19T13:31:52;98884.97;;;17.23;58.62
34712;BME280;20941;42.408;25.634;2023-01-19T13:34:22;98885.97;;;17.30;58.74
34712;BME280;20941;42.408;25.634;2023-01-19T13:36:50;98839.56;;;17.07;58.78
34712;BME280;20941;42.408;25.634;2023-01-19T13:39:38;98855.09;;;17.09;59.08
34712;BME280;20941;42.408;25.634;2023-01-19T13:42:27;98870.56;;;17.12;59.60
34712;BME280;20941;42.408;25.634;2023-01-19T13:44:57;98858.09;;;17.00;60.03
34712;BME280;20941;42.408;25.634;2023-01-19T13:47:47;98867.19;;;17.06;59.78
34712;BME280;20941;42.408;25.634;2023-01-19T13:50:22;98870.00;;;17.06;59.86
34712;BME280;20941;42.408;25.634;2023-01-19T13:52:48;98871.13;;;17.02;60.08
34712;BME280;20941;42.408;25.634;2023-01-19T13:55:15;98864.00;;;16.92;60.32
34712;BME280;20941;42.408;25.634;2023-01-19T13:57:43;98861.25;;;16.79;60.25
34712;BME280;20941;42.408;25.634;2023-01-19T14:05:30;98887.56;;;16.76;61.01